Carnival Conquest — 3FPQ9 — position and weather

sailwx.info

Track history (hours):
 
Tides and Currents Weather Stations Pressure Air Temp Water Temp Dewpoint Dewpoint Depression Visibility Wind Speed Wind Dir Waves Ship Positions

Carnival Conquest

Operator: Carnival Cruise Lines

Last reported at 2017-Jul-25 19:00 UTC. Time now 2017-Jul-27 00:35 UTC.
Position N 21°24' W 075°42'.

Type: Ship. MMSI: 357657000.

Wind from 090 at 20 knots

Barometer 1019.0 mb
Air temperature 28.0 ° C
Dewpoint 25.0 ° C
Water temperature 28.0 ° C

Date/timePositionNaut miles runAvg speedWind from/ knotsBaromVisibWave heightAir tempDewpointWater temp
2017-Jul-25 19:00N 21°24' W 075°42'16718.5 090 / 201019.0 28.025.028.0
2017-Jul-25 10:00N 22°36' W 078°24'7919.8 090 / 91018.010.8 29.0
2017-Jul-25 06:00N 23°42' W 079°12'10919.9 060 / 201019.0 27.024.028.0
2017-Jul-25 00:32N 25°29' W 079°35'116.4
2017-Jul-25 00:28N 25°30' W 079°35'816.2
2017-Jul-25 00:00N 25°37' W 079°37'714.8
2017-Jul-24 23:31N 25°43' W 079°41'815.5
2017-Jul-24 23:00N 25°49' W 079°47'815.7
2017-Jul-24 22:31N 25°55' W 079°53'815.6
2017-Jul-24 22:00N 26°01' W 079°59'713.7
2017-Jul-24 21:31N 26°06' W 080°04'3 5.8
2017-Jul-24 20:58N 26°05' W 080°07'0 0.3
2017-Jul-24 20:28N 26°05' W 080°07'0 0.0
2017-Jul-24 19:58N 26°05' W 080°07'0 0.0
2017-Jul-24 19:28N 26°05' W 080°07'0 0.0
2017-Jul-24 18:58N 26°05' W 080°07'0 0.0
2017-Jul-24 18:30N 26°05' W 080°07'0 0.0
2017-Jul-24 18:00N 26°05' W 080°07'0 0.0
2017-Jul-24 17:30N 26°05' W 080°07'0 0.0
2017-Jul-24 16:57N 26°05' W 080°07'0 0.0
2017-Jul-24 16:29N 26°05' W 080°07'0 0.0
2017-Jul-24 15:56N 26°05' W 080°07'0 0.0
2017-Jul-24 12:58N 26°05' W 080°07'0 0.0
2017-Jul-24 12:25N 26°05' W 080°07'0 0.0
2017-Jul-24 12:00N 26°05' W 080°07'0 0.0
2017-Jul-24 11:30N 26°05' W 080°07'0 0.0
2017-Jul-24 11:00N 26°05' W 080°07'0 0.0
2017-Jul-24 10:30N 26°05' W 080°07'0 0.0
2017-Jul-24 10:01N 26°05' W 080°07'2 3.4
2017-Jul-24 09:30N 26°06' W 080°05'5 9.0
2017-Jul-24 09:00N 26°06' W 080°00'4 7.9
2017-Jul-24 08:30N 26°06' W 079°56'4 8.6
2017-Jul-24 08:00N 26°07' W 079°51'4 9.0
2017-Jul-24 07:30N 26°08' W 079°46'5 9.2
2017-Jul-24 07:00N 26°08' W 079°41'5 9.0
2017-Jul-24 06:30N 26°09' W 079°36'5 9.1
2017-Jul-24 06:00N 26°09' W 079°31'4 8.7
2017-Jul-24 05:30N 26°10' W 079°26'612.2
2017-Jul-24 05:00N 26°11' W 079°20'18160.0
2017-Jul-24 02:00N 29°00' W 078°06'20410.2 090 / 151017.0 28.025.028.0
2017-Jul-23 06:00N 25°48' W 076°48'61 2.2 040 / 15 27.024.0
2017-Jul-22 03:00N 25°36' W 075°42'33 8.3 090 / 151020.0 28.025.028.0
2017-Jul-21 23:00N 25°42' W 076°18'3210.8 090 / 91019.010.8 28.022.028.0
2017-Jul-21 20:00N 25°42' W 076°54'130 9.3 070 / 101017.0 26.023.0
2017-Jul-21 06:05N 26°16' W 079°13'110.4
2017-Jul-21 06:00N 26°16' W 079°14'17614057.0
2017-Jul-21 06:00N 29°12' W 079°12'177365.6 090 / 101017.0 26.023.028.0
2017-Jul-21 05:30N 26°15' W 079°20'510.3
2017-Jul-21 05:00N 26°18' W 079°25'4 8.7
2017-Jul-21 04:30N 26°20' W 079°30'510.0
2017-Jul-21 04:00N 26°15' W 079°31'510.6
2017-Jul-21 03:30N 26°10' W 079°31'510.5
2017-Jul-21 03:00N 26°04' W 079°31'510.5
2017-Jul-21 02:30N 25°59' W 079°32'510.7
2017-Jul-21 02:00N 25°54' W 079°32'2316.2
2017-Jul-21 02:00N 25°54' W 079°30'713.7 090 / 151018.0 28.025.028.0
2017-Jul-21 01:30N 25°48' W 079°33'4 7.5
2017-Jul-21 00:59N 25°49' W 079°37'4 7.8
2017-Jul-21 00:30N 25°52' W 079°38'4 8.4
2017-Jul-20 23:59N 25°56' W 079°40'5 8.3
2017-Jul-20 23:20N 26°00' W 079°44'3 9.2
2017-Jul-20 23:00N 26°01' W 079°47'5 9.6
2017-Jul-20 22:30N 26°03' W 079°52'4 8.6
2017-Jul-20 22:00N 26°05' W 079°56'5 9.8
2017-Jul-20 21:30N 26°06' W 080°02'5 9.5
2017-Jul-20 21:00N 26°06' W 080°07'0 0.8
2017-Jul-20 20:26N 26°05' W 080°07'0 0.0
2017-Jul-20 19:59N 26°05' W 080°07'0 0.0
2017-Jul-20 19:29N 26°05' W 080°07'0 0.0
2017-Jul-20 18:58N 26°05' W 080°07'0 0.0
2017-Jul-20 18:28N 26°05' W 080°07'0 0.0
2017-Jul-20 17:58N 26°05' W 080°07'0 0.0
2017-Jul-20 17:28N 26°05' W 080°07'0 0.0
2017-Jul-20 17:00N 26°05' W 080°07'0 0.0
2017-Jul-20 16:30N 26°05' W 080°07'0 0.0
2017-Jul-20 16:00N 26°05' W 080°07'0 0.0
2017-Jul-20 15:27N 26°05' W 080°07'0 0.0
2017-Jul-20 14:57N 26°05' W 080°07'0 0.0
2017-Jul-20 13:59N 26°05' W 080°07'0 0.0
2017-Jul-20 13:29N 26°05' W 080°07'0 0.0
2017-Jul-20 12:59N 26°05' W 080°07'0 0.0
2017-Jul-20 12:26N 26°05' W 080°07'0 0.0
2017-Jul-20 11:55N 26°05' W 080°07'0 0.0
2017-Jul-20 11:28N 26°05' W 080°07'0 0.0
2017-Jul-20 10:58N 26°05' W 080°07'0 0.0
2017-Jul-20 10:28N 26°05' W 080°07'0 0.0
2017-Jul-20 10:00N 26°05' W 080°07'1 1.7
2017-Jul-20 09:30N 26°06' W 080°06'612.0
2017-Jul-20 09:00N 26°06' W 079°60'815.8
2017-Jul-20 08:30N 26°07' W 079°51'816.1
2017-Jul-20 08:00N 26°08' W 079°42'815.6
2017-Jul-20 07:30N 26°09' W 079°33'714.4
2017-Jul-20 07:01N 26°10' W 079°25'917.4
2017-Jul-20 06:31N 26°11' W 079°16'32016.4
2017-Jul-19 11:00N 24°00' W 073°54'10517.6 090 / 201019.010.8 27.024.028.0
2017-Jul-19 05:00N 22°48' W 072°30'29 1.5 050 / 201020.0 26.023.028.0
2017-Jul-18 09:00N 22°24' W 072°12'4924.5 100 / 191015.010.8 26.023.028.0
2017-Jul-18 07:00N 22°54' W 072°54'14317.9 090 / 201015.0 24.021.028.0
2017-Jul-17 23:00N 23°48' W 075°18'96 5.6 120 / 221016.010.8 26.022.028.0
2017-Jul-17 06:00N 25°24' W 075°18'5427.1 090 / 101015.0 26.020.0
2017-Jul-17 04:00N 25°48' W 076°12'65 3.3 090 / 151016.0 28.025.028.0
2017-Jul-16 08:00N 25°42' W 077°24'5413.5 050 / 121015.0 26.023.028.0
2017-Jul-16 04:00N 26°06' W 078°18'5414.5 28.0
2017-Jul-16 00:16N 26°14' W 079°17'414.8
2017-Jul-16 00:01N 26°14' W 079°21'714.6
2017-Jul-15 23:31N 26°12' W 079°29'714.2
2017-Jul-15 23:00N 26°11' W 079°37'714.5
2017-Jul-15 22:30N 26°09' W 079°45'714.7
2017-Jul-15 22:00N 26°08' W 079°53'714.3
2017-Jul-15 21:30N 26°07' W 080°01'510.7
2017-Jul-15 21:01N 26°06' W 080°07'0 0.9
2017-Jul-15 20:29N 26°05' W 080°07'0 0.0
2017-Jul-15 19:59N 26°05' W 080°07'0 0.0
2017-Jul-15 19:29N 26°05' W 080°07'  
Track history (hours):
 
Tides and Currents Weather Stations Pressure Air Temp Water Temp Dewpoint Dewpoint Depression Visibility Wind Speed Wind Dir Waves Ship Positions

Carnival Conquest

Operator: Carnival Cruise Lines

Last reported at 2017-Jul-25 19:00 UTC. Time now 2017-Jul-27 00:35 UTC.
Position N 21°24' W 075°42'.

Type: Ship. MMSI: 357657000.

Wind from 090 at 20 knots

Barometer 1019.0 mb
Air temperature 28.0 ° C
Dewpoint 25.0 ° C
Water temperature 28.0 ° C

Date/timePositionNaut miles runAvg speedWind from/ knotsBaromVisibWave heightAir tempDewpointWater temp
2017-Jul-25 19:00N 21°24' W 075°42'16718.5 090 / 201019.0 28.025.028.0
2017-Jul-25 10:00N 22°36' W 078°24'7919.8 090 / 91018.010.8 29.0
2017-Jul-25 06:00N 23°42' W 079°12'10919.9 060 / 201019.0 27.024.028.0
2017-Jul-25 00:32N 25°29' W 079°35'116.4
2017-Jul-25 00:28N 25°30' W 079°35'816.2
2017-Jul-25 00:00N 25°37' W 079°37'714.8
2017-Jul-24 23:31N 25°43' W 079°41'815.5
2017-Jul-24 23:00N 25°49' W 079°47'815.7
2017-Jul-24 22:31N 25°55' W 079°53'815.6
2017-Jul-24 22:00N 26°01' W 079°59'713.7
2017-Jul-24 21:31N 26°06' W 080°04'3 5.8
2017-Jul-24 20:58N 26°05' W 080°07'0 0.3
2017-Jul-24 20:28N 26°05' W 080°07'0 0.0
2017-Jul-24 19:58N 26°05' W 080°07'0 0.0
2017-Jul-24 19:28N 26°05' W 080°07'0 0.0
2017-Jul-24 18:58N 26°05' W 080°07'0 0.0
2017-Jul-24 18:30N 26°05' W 080°07'0 0.0
2017-Jul-24 18:00N 26°05' W 080°07'0 0.0
2017-Jul-24 17:30N 26°05' W 080°07'0 0.0
2017-Jul-24 16:57N 26°05' W 080°07'0 0.0
2017-Jul-24 16:29N 26°05' W 080°07'0 0.0
2017-Jul-24 15:56N 26°05' W 080°07'0 0.0
2017-Jul-24 12:58N 26°05' W 080°07'0 0.0
2017-Jul-24 12:25N 26°05' W 080°07'0 0.0
2017-Jul-24 12:00N 26°05' W 080°07'0 0.0
2017-Jul-24 11:30N 26°05' W 080°07'0 0.0
2017-Jul-24 11:00N 26°05' W 080°07'0 0.0
2017-Jul-24 10:30N 26°05' W 080°07'0 0.0
2017-Jul-24 10:01N 26°05' W 080°07'2 3.4
2017-Jul-24 09:30N 26°06' W 080°05'5 9.0
2017-Jul-24 09:00N 26°06' W 080°00'4 7.9
2017-Jul-24 08:30N 26°06' W 079°56'4 8.6
2017-Jul-24 08:00N 26°07' W 079°51'4 9.0
2017-Jul-24 07:30N 26°08' W 079°46'5 9.2
2017-Jul-24 07:00N 26°08' W 079°41'5 9.0
2017-Jul-24 06:30N 26°09' W 079°36'5 9.1
2017-Jul-24 06:00N 26°09' W 079°31'4 8.7
2017-Jul-24 05:30N 26°10' W 079°26'612.2
2017-Jul-24 05:00N 26°11' W 079°20'18160.0
2017-Jul-24 02:00N 29°00' W 078°06'20410.2 090 / 151017.0 28.025.028.0
2017-Jul-23 06:00N 25°48' W 076°48'61 2.2 040 / 15 27.024.0
2017-Jul-22 03:00N 25°36' W 075°42'33 8.3 090 / 151020.0 28.025.028.0
2017-Jul-21 23:00N 25°42' W 076°18'3210.8 090 / 91019.010.8 28.022.028.0
2017-Jul-21 20:00N 25°42' W 076°54'130 9.3 070 / 101017.0 26.023.0
2017-Jul-21 06:05N 26°16' W 079°13'110.4
2017-Jul-21 06:00N 26°16' W 079°14'17614057.0
2017-Jul-21 06:00N 29°12' W 079°12'177365.6 090 / 101017.0 26.023.028.0
2017-Jul-21 05:30N 26°15' W 079°20'510.3
2017-Jul-21 05:00N 26°18' W 079°25'4 8.7
2017-Jul-21 04:30N 26°20' W 079°30'510.0
2017-Jul-21 04:00N 26°15' W 079°31'510.6
2017-Jul-21 03:30N 26°10' W 079°31'510.5
2017-Jul-21 03:00N 26°04' W 079°31'510.5
2017-Jul-21 02:30N 25°59' W 079°32'510.7
2017-Jul-21 02:00N 25°54' W 079°32'2316.2
2017-Jul-21 02:00N 25°54' W 079°30'713.7 090 / 151018.0 28.025.028.0
2017-Jul-21 01:30N 25°48' W 079°33'4 7.5
2017-Jul-21 00:59N 25°49' W 079°37'4 7.8
2017-Jul-21 00:30N 25°52' W 079°38'4 8.4
2017-Jul-20 23:59N 25°56' W 079°40'5 8.3
2017-Jul-20 23:20N 26°00' W 079°44'3 9.2
2017-Jul-20 23:00N 26°01' W 079°47'5 9.6
2017-Jul-20 22:30N 26°03' W 079°52'4 8.6
2017-Jul-20 22:00N 26°05' W 079°56'5 9.8
2017-Jul-20 21:30N 26°06' W 080°02'5 9.5
2017-Jul-20 21:00N 26°06' W 080°07'0 0.8
2017-Jul-20 20:26N 26°05' W 080°07'0 0.0
2017-Jul-20 19:59N 26°05' W 080°07'0 0.0
2017-Jul-20 19:29N 26°05' W 080°07'0 0.0
2017-Jul-20 18:58N 26°05' W 080°07'0 0.0
2017-Jul-20 18:28N 26°05' W 080°07'0 0.0
2017-Jul-20 17:58N 26°05' W 080°07'0 0.0
2017-Jul-20 17:28N 26°05' W 080°07'0 0.0
2017-Jul-20 17:00N 26°05' W 080°07'0 0.0
2017-Jul-20 16:30N 26°05' W 080°07'0 0.0
2017-Jul-20 16:00N 26°05' W 080°07'0 0.0
2017-Jul-20 15:27N 26°05' W 080°07'0 0.0
2017-Jul-20 14:57N 26°05' W 080°07'0 0.0
2017-Jul-20 13:59N 26°05' W 080°07'0 0.0
2017-Jul-20 13:29N 26°05' W 080°07'0 0.0
2017-Jul-20 12:59N 26°05' W 080°07'0 0.0
2017-Jul-20 12:26N 26°05' W 080°07'0 0.0
2017-Jul-20 11:55N 26°05' W 080°07'0 0.0
2017-Jul-20 11:28N 26°05' W 080°07'0 0.0
2017-Jul-20 10:58N 26°05' W 080°07'0 0.0
2017-Jul-20 10:28N 26°05' W 080°07'0 0.0
2017-Jul-20 10:00N 26°05' W 080°07'1 1.7
2017-Jul-20 09:30N 26°06' W 080°06'612.0
2017-Jul-20 09:00N 26°06' W 079°60'815.8
2017-Jul-20 08:30N 26°07' W 079°51'816.1
2017-Jul-20 08:00N 26°08' W 079°42'815.6
2017-Jul-20 07:30N 26°09' W 079°33'714.4
2017-Jul-20 07:01N 26°10' W 079°25'917.4
2017-Jul-20 06:31N 26°11' W 079°16'32016.4
2017-Jul-19 11:00N 24°00' W 073°54'10517.6 090 / 201019.010.8 27.024.028.0
2017-Jul-19 05:00N 22°48' W 072°30'29 1.5 050 / 201020.0 26.023.028.0
2017-Jul-18 09:00N 22°24' W 072°12'4924.5 100 / 191015.010.8 26.023.028.0
2017-Jul-18 07:00N 22°54' W 072°54'14317.9 090 / 201015.0 24.021.028.0
2017-Jul-17 23:00N 23°48' W 075°18'96 5.6 120 / 221016.010.8 26.022.028.0
2017-Jul-17 06:00N 25°24' W 075°18'5427.1 090 / 101015.0 26.020.0
2017-Jul-17 04:00N 25°48' W 076°12'65 3.3 090 / 151016.0 28.025.028.0
2017-Jul-16 08:00N 25°42' W 077°24'5413.5 050 / 121015.0 26.023.028.0
2017-Jul-16 04:00N 26°06' W 078°18'5414.5 28.0
2017-Jul-16 00:16N 26°14' W 079°17'414.8
2017-Jul-16 00:01N 26°14' W 079°21'714.6
2017-Jul-15 23:31N 26°12' W 079°29'714.2
2017-Jul-15 23:00N 26°11' W 079°37'714.5
2017-Jul-15 22:30N 26°09' W 079°45'714.7
2017-Jul-15 22:00N 26°08' W 079°53'714.3
2017-Jul-15 21:30N 26°07' W 080°01'510.7
2017-Jul-15 21:01N 26°06' W 080°07'0 0.9
2017-Jul-15 20:29N 26°05' W 080°07'0 0.0
2017-Jul-15 19:59N 26°05' W 080°07'0 0.0
2017-Jul-15 19:29N 26°05' W 080°07'  

Dump ship's entire track history